sensor_id;sensor_type;location;lat;lon;timestamp;P1;durP1;ratioP1;P2;durP2;ratioP2
71154;SDS011;59375;53.216;5.728;2022-07-10T00:00:05;9.30;;;2.67;;
71154;SDS011;59375;53.216;5.728;2022-07-10T00:02:36;7.88;;;2.00;;
71154;SDS011;59375;53.216;5.728;2022-07-10T00:05:03;8.93;;;2.10;;
71154;SDS011;59375;53.216;5.728;2022-07-10T00:07:29;7.72;;;2.10;;
71154;SDS011;59375;53.216;5.728;2022-07-10T00:09:55;8.30;;;2.20;;
71154;SDS011;59375;53.216;5.728;2022-07-10T00:12:21;8.27;;;2.13;;
71154;SDS011;59375;53.216;5.728;2022-07-10T00:14:46;7.97;;;2.35;;
71154;SDS011;59375;53.216;5.728;2022-07-10T00:17:12;7.20;;;2.05;;
71154;SDS011;59375;53.216;5.728;2022-07-10T00:19:37;9.15;;;2.47;;
71154;SDS011;59375;53.216;5.728;2022-07-10T00:22:03;9.45;;;2.53;;
71154;SDS011;59375;53.216;5.728;2022-07-10T00:24:29;8.50;;;2.33;;
71154;SDS011;59375;53.216;5.728;2022-07-10T00:26:55;8.75;;;1.80;;
71154;SDS011;59375;53.216;5.728;2022-07-10T00:29:20;9.38;;;2.60;;
71154;SDS011;59375;53.216;5.728;2022-07-10T00:31:46;7.90;;;2.45;;
71154;SDS011;59375;53.216;5.728;2022-07-10T00:34:11;8.30;;;2.10;;
71154;SDS011;59375;53.216;5.728;2022-07-10T00:36:37;9.27;;;2.25;;
71154;SDS011;59375;53.216;5.728;2022-07-10T00:39:03;8.45;;;2.10;;
71154;SDS011;59375;53.216;5.728;2022-07-10T00:41:29;10.30;;;2.55;;
71154;SDS011;59375;53.216;5.728;2022-07-10T00:43:55;13.23;;;2.92;;
71154;SDS011;59375;53.216;5.728;2022-07-10T00:46:23;13.88;;;3.15;;
71154;SDS011;59375;53.216;5.728;2022-07-10T00:48:49;9.30;;;2.15;;
71154;SDS011;59375;53.216;5.728;2022-07-10T00:51:16;10.60;;;2.88;;
71154;SDS011;59375;53.216;5.728;2022-07-10T00:53:46;9.50;;;2.25;;
71154;SDS011;59375;53.216;5.728;2022-07-10T00:56:15;9.32;;;2.20;;
71154;SDS011;59375;53.216;5.728;2022-07-10T00:58:42;7.65;;;2.20;;
71154;SDS011;59375;53.216;5.728;2022-07-10T01:01:11;9.80;;;2.53;;
71154;SDS011;59375;53.216;5.728;2022-07-10T01:03:37;7.68;;;2.13;;
71154;SDS011;59375;53.216;5.728;2022-07-10T01:06:03;7.13;;;1.98;;
71154;SDS011;59375;53.216;5.728;2022-07-10T01:08:28;12.27;;;2.17;;
71154;SDS011;59375;53.216;5.728;2022-07-10T01:10:54;6.28;;;1.98;;
71154;SDS011;59375;53.216;5.728;2022-07-10T01:13:20;7.82;;;2.00;;
71154;SDS011;59375;53.216;5.728;2022-07-10T01:15:46;10.55;;;2.20;;
71154;SDS011;59375;53.216;5.728;2022-07-10T01:18:13;7.65;;;1.77;;
71154;SDS011;59375;53.216;5.728;2022-07-10T01:20:39;7.13;;;1.80;;
71154;SDS011;59375;53.216;5.728;2022-07-10T01:23:04;5.70;;;2.00;;
71154;SDS011;59375;53.216;5.728;2022-07-10T01:25:30;9.93;;;2.10;;
71154;SDS011;59375;53.216;5.728;2022-07-10T01:27:55;8.35;;;2.00;;
71154;SDS011;59375;53.216;5.728;2022-07-10T01:30:21;7.55;;;1.90;;
71154;SDS011;59375;53.216;5.728;2022-07-10T01:32:47;6.63;;;1.90;;
71154;SDS011;59375;53.216;5.728;2022-07-10T01:35:13;8.27;;;1.75;;
71154;SDS011;59375;53.216;5.728;2022-07-10T01:37:39;8.77;;;1.98;;
71154;SDS011;59375;53.216;5.728;2022-07-10T01:40:06;8.93;;;2.00;;
71154;SDS011;59375;53.216;5.728;2022-07-10T01:42:33;9.00;;;1.83;;
71154;SDS011;59375;53.216;5.728;2022-07-10T01:44:58;7.82;;;2.22;;
71154;SDS011;59375;53.216;5.728;2022-07-10T01:47:24;8.80;;;2.22;;
71154;SDS011;59375;53.216;5.728;2022-07-10T01:49:52;7.97;;;2.10;;
71154;SDS011;59375;53.216;5.728;2022-07-10T01:52:18;9.82;;;2.20;;
71154;SDS011;59375;53.216;5.728;2022-07-10T01:54:45;10.20;;;2.40;;
71154;SDS011;59375;53.216;5.728;2022-07-10T01:57:11;11.65;;;2.28;;
71154;SDS011;59375;53.216;5.728;2022-07-10T01:59:38;9.20;;;2.03;;
71154;SDS011;59375;53.216;5.728;2022-07-10T02:02:04;7.78;;;2.00;;
71154;SDS011;59375;53.216;5.728;2022-07-10T02:04:30;7.63;;;1.90;;
71154;SDS011;59375;53.216;5.728;2022-07-10T02:07:11;8.60;;;2.47;;
71154;SDS011;59375;53.216;5.728;2022-07-10T02:09:38;7.75;;;2.13;;
71154;SDS011;59375;53.216;5.728;2022-07-10T02:12:05;8.38;;;2.10;;
71154;SDS011;59375;53.216;5.728;2022-07-10T02:14:32;8.27;;;2.13;;
71154;SDS011;59375;53.216;5.728;2022-07-10T02:16:58;11.75;;;2.42;;
71154;SDS011;59375;53.216;5.728;2022-07-10T02:19:23;9.93;;;2.45;;
71154;SDS011;59375;53.216;5.728;2022-07-10T02:21:49;9.70;;;2.13;;
71154;SDS011;59375;53.216;5.728;2022-07-10T02:24:14;8.32;;;2.08;;
71154;SDS011;59375;53.216;5.728;2022-07-10T02:26:40;7.70;;;2.45;;
71154;SDS011;59375;53.216;5.728;2022-07-10T02:29:06;9.70;;;2.40;;
71154;SDS011;59375;53.216;5.728;2022-07-10T02:31:31;10.93;;;2.70;;
71154;SDS011;59375;53.216;5.728;2022-07-10T02:33:59;8.55;;;2.50;;
71154;SDS011;59375;53.216;5.728;2022-07-10T02:36:25;12.40;;;2.50;;
71154;SDS011;59375;53.216;5.728;2022-07-10T02:38:50;10.93;;;2.58;;
71154;SDS011;59375;53.216;5.728;2022-07-10T02:41:16;14.07;;;2.30;;
71154;SDS011;59375;53.216;5.728;2022-07-10T02:43:41;12.02;;;2.28;;
71154;SDS011;59375;53.216;5.728;2022-07-10T02:46:07;10.13;;;2.60;;
71154;SDS011;59375;53.216;5.728;2022-07-10T02:48:32;7.80;;;2.00;;
71154;SDS011;59375;53.216;5.728;2022-07-10T02:50:58;12.02;;;2.78;;
71154;SDS011;59375;53.216;5.728;2022-07-10T02:53:23;9.57;;;2.42;;
71154;SDS011;59375;53.216;5.728;2022-07-10T02:55:49;8.25;;;2.30;;
71154;SDS011;59375;53.216;5.728;2022-07-10T02:58:14;8.45;;;2.40;;
71154;SDS011;59375;53.216;5.728;2022-07-10T03:00:40;11.50;;;2.78;;
71154;SDS011;59375;53.216;5.728;2022-07-10T03:03:06;10.23;;;2.63;;
71154;SDS011;59375;53.216;5.728;2022-07-10T03:05:32;10.52;;;2.80;;
71154;SDS011;59375;53.216;5.728;2022-07-10T03:07:58;9.57;;;2.78;;
71154;SDS011;59375;53.216;5.728;2022-07-10T03:10:24;10.45;;;2.85;;
71154;SDS011;59375;53.216;5.728;2022-07-10T03:12:49;9.57;;;2.53;;
71154;SDS011;59375;53.216;5.728;2022-07-10T03:15:15;7.70;;;2.40;;
71154;SDS011;59375;53.216;5.728;2022-07-10T03:17:40;12.23;;;3.20;;
71154;SDS011;59375;53.216;5.728;2022-07-10T03:20:06;11.60;;;2.70;;
71154;SDS011;59375;53.216;5.728;2022-07-10T03:22:33;10.77;;;3.10;;
71154;SDS011;59375;53.216;5.728;2022-07-10T03:24:59;9.40;;;2.90;;
71154;SDS011;59375;53.216;5.728;2022-07-10T03:27:25;11.07;;;2.70;;
71154;SDS011;59375;53.216;5.728;2022-07-10T03:29:51;12.10;;;2.83;;
71154;SDS011;59375;53.216;5.728;2022-07-10T03:32:16;12.68;;;3.55;;
71154;SDS011;59375;53.216;5.728;2022-07-10T03:34:42;14.60;;;3.35;;
71154;SDS011;59375;53.216;5.728;2022-07-10T03:37:07;11.68;;;3.33;;
71154;SDS011;59375;53.216;5.728;2022-07-10T03:39:33;9.65;;;3.20;;
71154;SDS011;59375;53.216;5.728;2022-07-10T03:41:58;9.23;;;2.67;;
71154;SDS011;59375;53.216;5.728;2022-07-10T03:44:24;8.30;;;2.50;;
71154;SDS011;59375;53.216;5.728;2022-07-10T03:46:50;11.02;;;2.85;;
71154;SDS011;59375;53.216;5.728;2022-07-10T03:49:15;11.60;;;2.88;;
71154;SDS011;59375;53.216;5.728;2022-07-10T03:51:41;9.90;;;2.85;;
71154;SDS011;59375;53.216;5.728;2022-07-10T03:54:07;7.63;;;2.67;;
71154;SDS011;59375;53.216;5.728;2022-07-10T03:56:32;8.55;;;2.88;;
71154;SDS011;59375;53.216;5.728;2022-07-10T03:59:17;14.43;;;3.85;;
71154;SDS011;59375;53.216;5.728;2022-07-10T04:01:42;9.82;;;2.75;;
71154;SDS011;59375;53.216;5.728;2022-07-10T04:04:08;14.57;;;3.05;;
71154;SDS011;59375;53.216;5.728;2022-07-10T04:06:34;9.18;;;2.70;;
71154;SDS011;59375;53.216;5.728;2022-07-10T04:09:03;6.72;;;2.65;;
71154;SDS011;59375;53.216;5.728;2022-07-10T04:11:29;10.07;;;2.47;;
71154;SDS011;59375;53.216;5.728;2022-07-10T04:13:55;13.15;;;2.92;;
71154;SDS011;59375;53.216;5.728;2022-07-10T04:16:21;7.60;;;2.70;;
71154;SDS011;59375;53.216;5.728;2022-07-10T04:18:46;7.07;;;2.58;;
71154;SDS011;59375;53.216;5.728;2022-07-10T04:21:13;9.85;;;2.70;;
71154;SDS011;59375;53.216;5.728;2022-07-10T04:23:38;14.15;;;3.15;;
71154;SDS011;59375;53.216;5.728;2022-07-10T04:26:04;8.30;;;2.60;;
71154;SDS011;59375;53.216;5.728;2022-07-10T04:28:29;11.52;;;2.95;;
71154;SDS011;59375;53.216;5.728;2022-07-10T04:30:55;8.48;;;2.88;;
71154;SDS011;59375;53.216;5.728;2022-07-10T04:33:21;9.77;;;2.45;;
71154;SDS011;59375;53.216;5.728;2022-07-10T04:35:46;10.30;;;2.50;;
71154;SDS011;59375;53.216;5.728;2022-07-10T04:38:12;10.30;;;2.70;;
71154;SDS011;59375;53.216;5.728;2022-07-10T04:40:38;11.65;;;3.00;;
71154;SDS011;59375;53.216;5.728;2022-07-10T04:43:03;10.38;;;2.65;;
71154;SDS011;59375;53.216;5.728;2022-07-10T04:45:29;10.20;;;2.60;;
71154;SDS011;59375;53.216;5.728;2022-07-10T04:47:54;12.43;;;2.85;;
71154;SDS011;59375;53.216;5.728;2022-07-10T04:50:20;11.20;;;3.10;;
71154;SDS011;59375;53.216;5.728;2022-07-10T04:52:45;10.32;;;2.60;;
71154;SDS011;59375;53.216;5.728;2022-07-10T04:55:11;9.85;;;2.50;;
71154;SDS011;59375;53.216;5.728;2022-07-10T04:57:36;9.57;;;2.97;;
71154;SDS011;59375;53.216;5.728;2022-07-10T05:00:03;11.85;;;2.90;;
71154;SDS011;59375;53.216;5.728;2022-07-10T05:02:29;13.10;;;2.97;;
71154;SDS011;59375;53.216;5.728;2022-07-10T05:04:55;10.43;;;2.80;;
71154;SDS011;59375;53.216;5.728;2022-07-10T05:07:20;10.30;;;2.67;;
71154;SDS011;59375;53.216;5.728;2022-07-10T05:09:46;8.52;;;3.03;;
71154;SDS011;59375;53.216;5.728;2022-07-10T05:12:11;8.63;;;2.53;;
71154;SDS011;59375;53.216;5.728;2022-07-10T05:14:37;10.93;;;3.20;;
71154;SDS011;59375;53.216;5.728;2022-07-10T05:17:02;8.73;;;2.55;;
71154;SDS011;59375;53.216;5.728;2022-07-10T05:19:28;7.72;;;2.47;;
71154;SDS011;59375;53.216;5.728;2022-07-10T05:21:54;7.03;;;2.47;;
71154;SDS011;59375;53.216;5.728;2022-07-10T05:24:20;7.50;;;2.70;;
71154;SDS011;59375;53.216;5.728;2022-07-10T05:26:45;8.95;;;2.60;;
71154;SDS011;59375;53.216;5.728;2022-07-10T05:29:11;8.25;;;2.47;;
71154;SDS011;59375;53.216;5.728;2022-07-10T05:31:36;8.23;;;2.40;;
71154;SDS011;59375;53.216;5.728;2022-07-10T05:34:02;7.85;;;2.20;;
71154;SDS011;59375;53.216;5.728;2022-07-10T05:36:27;8.73;;;2.47;;
71154;SDS011;59375;53.216;5.728;2022-07-10T05:38:53;7.28;;;2.22;;
71154;SDS011;59375;53.216;5.728;2022-07-10T05:41:18;9.13;;;2.45;;
71154;SDS011;59375;53.216;5.728;2022-07-10T05:43:44;6.45;;;2.40;;
71154;SDS011;59375;53.216;5.728;2022-07-10T05:46:10;9.85;;;2.92;;
71154;SDS011;59375;53.216;5.728;2022-07-10T05:48:35;14.40;;;3.00;;
71154;SDS011;59375;53.216;5.728;2022-07-10T05:51:01;10.48;;;2.85;;
71154;SDS011;59375;53.216;5.728;2022-07-10T05:53:26;9.63;;;2.75;;
71154;SDS011;59375;53.216;5.728;2022-07-10T05:55:52;11.07;;;2.80;;
71154;SDS011;59375;53.216;5.728;2022-07-10T05:58:17;8.18;;;2.45;;
71154;SDS011;59375;53.216;5.728;2022-07-10T06:00:43;10.38;;;3.00;;
71154;SDS011;59375;53.216;5.728;2022-07-10T06:03:09;12.13;;;2.70;;
71154;SDS011;59375;53.216;5.728;2022-07-10T06:05:35;9.98;;;2.95;;
71154;SDS011;59375;53.216;5.728;2022-07-10T06:08:02;9.82;;;2.70;;
71154;SDS011;59375;53.216;5.728;2022-07-10T06:10:28;11.50;;;2.80;;
71154;SDS011;59375;53.216;5.728;2022-07-10T06:12:53;6.80;;;2.65;;
71154;SDS011;59375;53.216;5.728;2022-07-10T06:15:19;8.77;;;2.50;;
71154;SDS011;59375;53.216;5.728;2022-07-10T06:17:44;8.20;;;2.80;;
71154;SDS011;59375;53.216;5.728;2022-07-10T06:20:10;7.38;;;2.50;;
71154;SDS011;59375;53.216;5.728;2022-07-10T06:22:35;7.25;;;2.45;;
71154;SDS011;59375;53.216;5.728;2022-07-10T06:25:02;10.63;;;2.80;;
71154;SDS011;59375;53.216;5.728;2022-07-10T06:27:29;7.07;;;2.40;;
71154;SDS011;59375;53.216;5.728;2022-07-10T06:29:55;7.72;;;2.75;;
71154;SDS011;59375;53.216;5.728;2022-07-10T06:32:21;8.18;;;2.33;;
71154;SDS011;59375;53.216;5.728;2022-07-10T06:34:47;6.50;;;2.10;;
71154;SDS011;59375;53.216;5.728;2022-07-10T06:37:12;7.30;;;2.28;;
71154;SDS011;59375;53.216;5.728;2022-07-10T06:39:38;6.78;;;2.30;;
71154;SDS011;59375;53.216;5.728;2022-07-10T06:42:04;6.78;;;2.65;;
71154;SDS011;59375;53.216;5.728;2022-07-10T06:44:30;8.75;;;2.72;;
71154;SDS011;59375;53.216;5.728;2022-07-10T06:46:57;9.05;;;2.50;;
71154;SDS011;59375;53.216;5.728;2022-07-10T06:49:41;5.03;;;2.50;;
71154;SDS011;59375;53.216;5.728;2022-07-10T06:52:08;8.02;;;2.53;;
71154;SDS011;59375;53.216;5.728;2022-07-10T06:54:34;8.23;;;2.60;;
71154;SDS011;59375;53.216;5.728;2022-07-10T06:56:59;8.98;;;2.55;;
71154;SDS011;59375;53.216;5.728;2022-07-10T06:59:25;8.50;;;2.55;;
71154;SDS011;59375;53.216;5.728;2022-07-10T07:01:52;7.32;;;2.40;;
71154;SDS011;59375;53.216;5.728;2022-07-10T07:04:17;6.22;;;2.40;;
71154;SDS011;59375;53.216;5.728;2022-07-10T07:06:43;7.90;;;2.35;;
71154;SDS011;59375;53.216;5.728;2022-07-10T07:09:08;9.07;;;2.70;;
71154;SDS011;59375;53.216;5.728;2022-07-10T07:11:34;10.65;;;3.00;;
71154;SDS011;59375;53.216;5.728;2022-07-10T07:13:59;9.82;;;2.80;;
71154;SDS011;59375;53.216;5.728;2022-07-10T07:16:25;8.07;;;3.17;;
71154;SDS011;59375;53.216;5.728;2022-07-10T07:19:03;9.00;;;2.47;;
71154;SDS011;59375;53.216;5.728;2022-07-10T07:21:30;9.50;;;2.75;;
71154;SDS011;59375;53.216;5.728;2022-07-10T07:24:14;13.15;;;2.50;;
71154;SDS011;59375;53.216;5.728;2022-07-10T07:26:40;8.02;;;2.10;;
71154;SDS011;59375;53.216;5.728;2022-07-10T07:29:05;7.20;;;2.78;;
71154;SDS011;59375;53.216;5.728;2022-07-10T07:31:31;7.85;;;2.50;;
71154;SDS011;59375;53.216;5.728;2022-07-10T07:33:57;8.82;;;2.88;;
71154;SDS011;59375;53.216;5.728;2022-07-10T07:36:22;9.38;;;2.72;;
71154;SDS011;59375;53.216;5.728;2022-07-10T07:38:48;8.50;;;2.60;;
71154;SDS011;59375;53.216;5.728;2022-07-10T07:41:13;6.93;;;2.50;;
71154;SDS011;59375;53.216;5.728;2022-07-10T07:43:40;4.85;;;2.10;;
71154;SDS011;59375;53.216;5.728;2022-07-10T07:46:05;6.63;;;2.30;;
71154;SDS011;59375;53.216;5.728;2022-07-10T07:48:31;6.93;;;2.10;;
71154;SDS011;59375;53.216;5.728;2022-07-10T07:50:57;6.70;;;2.70;;
71154;SDS011;59375;53.216;5.728;2022-07-10T07:53:22;13.45;;;2.75;;
71154;SDS011;59375;53.216;5.728;2022-07-10T07:55:48;11.25;;;2.60;;
71154;SDS011;59375;53.216;5.728;2022-07-10T07:58:14;7.55;;;2.22;;
71154;SDS011;59375;53.216;5.728;2022-07-10T08:00:39;7.43;;;2.60;;
71154;SDS011;59375;53.216;5.728;2022-07-10T08:03:05;7.60;;;2.40;;
71154;SDS011;59375;53.216;5.728;2022-07-10T08:05:30;8.63;;;2.53;;
71154;SDS011;59375;53.216;5.728;2022-07-10T08:07:57;5.70;;;2.20;;
71154;SDS011;59375;53.216;5.728;2022-07-10T08:10:26;5.38;;;2.20;;
71154;SDS011;59375;53.216;5.728;2022-07-10T08:12:52;8.70;;;2.58;;
71154;SDS011;59375;53.216;5.728;2022-07-10T08:15:19;7.72;;;2.58;;
71154;SDS011;59375;53.216;5.728;2022-07-10T08:17:48;7.28;;;2.45;;
71154;SDS011;59375;53.216;5.728;2022-07-10T08:20:15;7.65;;;2.63;;
71154;SDS011;59375;53.216;5.728;2022-07-10T08:22:41;7.93;;;2.60;;
71154;SDS011;59375;53.216;5.728;2022-07-10T08:25:08;6.72;;;2.50;;
71154;SDS011;59375;53.216;5.728;2022-07-10T08:27:34;6.57;;;2.20;;
71154;SDS011;59375;53.216;5.728;2022-07-10T08:29:59;10.23;;;2.97;;
71154;SDS011;59375;53.216;5.728;2022-07-10T08:32:25;7.53;;;2.10;;
71154;SDS011;59375;53.216;5.728;2022-07-10T08:34:52;7.70;;;2.30;;
71154;SDS011;59375;53.216;5.728;2022-07-10T08:37:18;6.63;;;2.30;;
71154;SDS011;59375;53.216;5.728;2022-07-10T08:39:44;8.32;;;2.67;;
71154;SDS011;59375;53.216;5.728;2022-07-10T08:42:10;7.45;;;2.40;;
71154;SDS011;59375;53.216;5.728;2022-07-10T08:44:36;6.85;;;2.33;;
71154;SDS011;59375;53.216;5.728;2022-07-10T08:47:02;9.48;;;2.65;;
71154;SDS011;59375;53.216;5.728;2022-07-10T08:49:29;7.82;;;2.42;;
71154;SDS011;59375;53.216;5.728;2022-07-10T08:52:05;8.32;;;2.53;;
71154;SDS011;59375;53.216;5.728;2022-07-10T08:54:38;8.15;;;2.58;;
71154;SDS011;59375;53.216;5.728;2022-07-10T08:57:04;7.28;;;2.78;;
71154;SDS011;59375;53.216;5.728;2022-07-10T08:59:30;8.70;;;2.60;;
71154;SDS011;59375;53.216;5.728;2022-07-10T09:01:56;10.00;;;2.40;;
71154;SDS011;59375;53.216;5.728;2022-07-10T09:04:23;5.20;;;2.53;;
71154;SDS011;59375;53.216;5.728;2022-07-10T09:06:50;7.40;;;2.40;;
71154;SDS011;59375;53.216;5.728;2022-07-10T09:09:17;11.20;;;2.80;;
71154;SDS011;59375;53.216;5.728;2022-07-10T09:11:43;6.47;;;2.17;;
71154;SDS011;59375;53.216;5.728;2022-07-10T09:14:10;6.57;;;2.33;;
71154;SDS011;59375;53.216;5.728;2022-07-10T09:16:40;7.53;;;2.40;;
71154;SDS011;59375;53.216;5.728;2022-07-10T09:21:42;8.35;;;2.38;;
71154;SDS011;59375;53.216;5.728;2022-07-10T09:24:08;5.80;;;2.45;;
71154;SDS011;59375;53.216;5.728;2022-07-10T09:26:35;6.60;;;2.20;;
71154;SDS011;59375;53.216;5.728;2022-07-10T09:29:04;8.15;;;2.60;;
71154;SDS011;59375;53.216;5.728;2022-07-10T09:37:17;7.88;;;2.80;;
71154;SDS011;59375;53.216;5.728;2022-07-10T09:42:30;5.70;;;2.22;;
71154;SDS011;59375;53.216;5.728;2022-07-10T09:47:42;8.65;;;2.20;;
71154;SDS011;59375;53.216;5.728;2022-07-10T09:52:56;9.25;;;2.40;;
71154;SDS011;59375;53.216;5.728;2022-07-10T09:55:34;8.98;;;2.30;;
71154;SDS011;59375;53.216;5.728;2022-07-10T09:58:01;8.63;;;2.08;;
71154;SDS011;59375;53.216;5.728;2022-07-10T10:00:32;6.88;;;2.10;;
71154;SDS011;59375;53.216;5.728;2022-07-10T10:03:00;7.40;;;2.40;;
71154;SDS011;59375;53.216;5.728;2022-07-10T10:05:35;7.68;;;2.67;;
71154;SDS011;59375;53.216;5.728;2022-07-10T10:08:05;7.75;;;2.55;;
71154;SDS011;59375;53.216;5.728;2022-07-10T10:10:36;6.80;;;2.28;;
71154;SDS011;59375;53.216;5.728;2022-07-10T10:13:06;7.18;;;2.50;;
71154;SDS011;59375;53.216;5.728;2022-07-10T10:15:35;7.70;;;2.63;;
71154;SDS011;59375;53.216;5.728;2022-07-10T10:18:01;6.00;;;2.17;;
71154;SDS011;59375;53.216;5.728;2022-07-10T10:20:27;7.18;;;2.38;;
71154;SDS011;59375;53.216;5.728;2022-07-10T10:23:10;7.15;;;2.22;;
71154;SDS011;59375;53.216;5.728;2022-07-10T10:25:37;6.50;;;2.42;;
71154;SDS011;59375;53.216;5.728;2022-07-10T10:28:08;7.22;;;2.30;;
71154;SDS011;59375;53.216;5.728;2022-07-10T10:30:38;8.23;;;2.03;;
71154;SDS011;59375;53.216;5.728;2022-07-10T10:33:40;7.18;;;1.92;;
71154;SDS011;59375;53.216;5.728;2022-07-10T10:35:57;6.63;;;2.20;;
71154;SDS011;59375;53.216;5.728;2022-07-10T10:38:23;6.82;;;2.10;;
71154;SDS011;59375;53.216;5.728;2022-07-10T10:40:49;4.75;;;2.00;;
71154;SDS011;59375;53.216;5.728;2022-07-10T10:43:15;6.00;;;2.00;;
71154;SDS011;59375;53.216;5.728;2022-07-10T10:45:46;6.88;;;2.10;;
71154;SDS011;59375;53.216;5.728;2022-07-10T10:48:12;6.60;;;2.20;;
71154;SDS011;59375;53.216;5.728;2022-07-10T10:53:16;5.32;;;2.20;;
71154;SDS011;59375;53.216;5.728;2022-07-10T10:58:27;6.90;;;2.40;;
71154;SDS011;59375;53.216;5.728;2022-07-10T11:01:42;7.88;;;2.15;;
71154;SDS011;59375;53.216;5.728;2022-07-10T11:09:23;4.47;;;1.88;;
71154;SDS011;59375;53.216;5.728;2022-07-10T11:15:03;6.68;;;2.05;;
71154;SDS011;59375;53.216;5.728;2022-07-10T11:17:43;4.95;;;1.90;;
71154;SDS011;59375;53.216;5.728;2022-07-10T11:20:16;4.25;;;1.85;;
71154;SDS011;59375;53.216;5.728;2022-07-10T11:22:47;6.03;;;2.78;;
71154;SDS011;59375;53.216;5.728;2022-07-10T11:25:31;7.55;;;3.33;;
71154;SDS011;59375;53.216;5.728;2022-07-10T11:28:07;6.72;;;2.40;;
71154;SDS011;59375;53.216;5.728;2022-07-10T11:33:14;5.15;;;2.15;;
71154;SDS011;59375;53.216;5.728;2022-07-10T11:35:40;4.70;;;2.22;;
71154;SDS011;59375;53.216;5.728;2022-07-10T11:38:08;5.22;;;2.00;;
71154;SDS011;59375;53.216;5.728;2022-07-10T11:40:37;6.93;;;2.20;;
71154;SDS011;59375;53.216;5.728;2022-07-10T11:43:03;5.40;;;2.00;;
71154;SDS011;59375;53.216;5.728;2022-07-10T11:45:33;5.18;;;1.95;;
71154;SDS011;59375;53.216;5.728;2022-07-10T11:48:03;8.60;;;2.35;;
71154;SDS011;59375;53.216;5.728;2022-07-10T11:50:36;7.70;;;2.22;;
71154;SDS011;59375;53.216;5.728;2022-07-10T11:53:03;6.43;;;2.15;;
71154;SDS011;59375;53.216;5.728;2022-07-10T11:55:30;8.68;;;2.03;;
71154;SDS011;59375;53.216;5.728;2022-07-10T11:58:11;7.95;;;2.22;;
71154;SDS011;59375;53.216;5.728;2022-07-10T12:00:37;5.38;;;2.08;;
71154;SDS011;59375;53.216;5.728;2022-07-10T12:03:16;4.85;;;2.05;;
71154;SDS011;59375;53.216;5.728;2022-07-10T12:05:43;5.00;;;2.10;;
71154;SDS011;59375;53.216;5.728;2022-07-10T12:08:09;6.75;;;2.22;;
71154;SDS011;59375;53.216;5.728;2022-07-10T12:10:36;8.18;;;2.20;;
71154;SDS011;59375;53.216;5.728;2022-07-10T12:15:35;5.20;;;2.00;;
71154;SDS011;59375;53.216;5.728;2022-07-10T12:18:03;3.95;;;2.03;;
71154;SDS011;59375;53.216;5.728;2022-07-10T12:20:30;7.63;;;2.40;;
71154;SDS011;59375;53.216;5.728;2022-07-10T12:22:56;7.53;;;2.10;;
71154;SDS011;59375;53.216;5.728;2022-07-10T12:25:22;6.38;;;2.10;;
71154;SDS011;59375;53.216;5.728;2022-07-10T12:27:48;4.95;;;1.90;;
71154;SDS011;59375;53.216;5.728;2022-07-10T12:30:14;7.80;;;2.13;;
71154;SDS011;59375;53.216;5.728;2022-07-10T12:32:40;6.13;;;2.00;;
71154;SDS011;59375;53.216;5.728;2022-07-10T12:35:05;4.38;;;1.90;;
71154;SDS011;59375;53.216;5.728;2022-07-10T12:37:46;4.75;;;2.00;;
71154;SDS011;59375;53.216;5.728;2022-07-10T12:40:29;5.28;;;2.55;;
71154;SDS011;59375;53.216;5.728;2022-07-10T12:43:02;5.10;;;2.10;;
71154;SDS011;59375;53.216;5.728;2022-07-10T12:45:29;4.25;;;1.90;;
71154;SDS011;59375;53.216;5.728;2022-07-10T12:47:54;4.95;;;1.90;;
71154;SDS011;59375;53.216;5.728;2022-07-10T12:50:20;4.35;;;1.77;;
71154;SDS011;59375;53.216;5.728;2022-07-10T12:52:48;7.65;;;2.08;;
71154;SDS011;59375;53.216;5.728;2022-07-10T12:55:18;3.60;;;1.75;;
71154;SDS011;59375;53.216;5.728;2022-07-10T13:02:47;5.95;;;2.28;;
71154;SDS011;59375;53.216;5.728;2022-07-10T13:10:36;6.53;;;1.88;;
71154;SDS011;59375;53.216;5.728;2022-07-10T13:13:02;5.38;;;2.00;;
71154;SDS011;59375;53.216;5.728;2022-07-10T13:15:29;6.65;;;1.80;;
71154;SDS011;59375;53.216;5.728;2022-07-10T13:17:55;4.00;;;1.70;;
71154;SDS011;59375;53.216;5.728;2022-07-10T13:20:21;4.97;;;2.00;;
71154;SDS011;59375;53.216;5.728;2022-07-10T13:22:47;6.50;;;2.05;;
71154;SDS011;59375;53.216;5.728;2022-07-10T13:25:13;6.53;;;2.08;;
71154;SDS011;59375;53.216;5.728;2022-07-10T13:27:39;4.82;;;2.00;;
71154;SDS011;59375;53.216;5.728;2022-07-10T13:30:04;5.43;;;2.38;;
71154;SDS011;59375;53.216;5.728;2022-07-10T13:32:30;6.20;;;2.30;;
71154;SDS011;59375;53.216;5.728;2022-07-10T13:34:56;6.50;;;2.40;;
71154;SDS011;59375;53.216;5.728;2022-07-10T13:37:22;5.93;;;2.00;;
71154;SDS011;59375;53.216;5.728;2022-07-10T13:39:47;5.78;;;2.00;;
71154;SDS011;59375;53.216;5.728;2022-07-10T13:42:13;4.78;;;2.20;;
71154;SDS011;59375;53.216;5.728;2022-07-10T13:44:38;6.65;;;2.45;;
71154;SDS011;59375;53.216;5.728;2022-07-10T13:47:04;5.93;;;2.45;;
71154;SDS011;59375;53.216;5.728;2022-07-10T13:49:30;8.65;;;2.50;;
71154;SDS011;59375;53.216;5.728;2022-07-10T13:51:56;9.25;;;2.60;;
71154;SDS011;59375;53.216;5.728;2022-07-10T13:54:21;4.85;;;2.42;;
71154;SDS011;59375;53.216;5.728;2022-07-10T13:56:47;6.22;;;2.60;;
71154;SDS011;59375;53.216;5.728;2022-07-10T13:59:12;7.70;;;2.70;;
71154;SDS011;59375;53.216;5.728;2022-07-10T14:01:38;5.70;;;2.28;;
71154;SDS011;59375;53.216;5.728;2022-07-10T14:04:04;8.13;;;2.50;;
71154;SDS011;59375;53.216;5.728;2022-07-10T14:06:29;6.85;;;2.67;;
71154;SDS011;59375;53.216;5.728;2022-07-10T14:08:55;11.93;;;2.65;;
71154;SDS011;59375;53.216;5.728;2022-07-10T14:11:20;5.97;;;2.30;;
71154;SDS011;59375;53.216;5.728;2022-07-10T14:13:46;6.20;;;2.75;;
71154;SDS011;59375;53.216;5.728;2022-07-10T14:16:11;9.13;;;3.55;;
71154;SDS011;59375;53.216;5.728;2022-07-10T14:18:37;9.30;;;2.70;;
71154;SDS011;59375;53.216;5.728;2022-07-10T14:21:06;6.88;;;2.63;;
71154;SDS011;59375;53.216;5.728;2022-07-10T14:23:37;6.05;;;2.70;;
71154;SDS011;59375;53.216;5.728;2022-07-10T14:26:04;5.30;;;2.40;;
71154;SDS011;59375;53.216;5.728;2022-07-10T14:28:31;5.32;;;2.35;;
71154;SDS011;59375;53.216;5.728;2022-07-10T14:30:57;7.35;;;3.10;;
71154;SDS011;59375;53.216;5.728;2022-07-10T14:33:25;7.75;;;3.10;;
71154;SDS011;59375;53.216;5.728;2022-07-10T14:35:51;10.27;;;3.10;;
71154;SDS011;59375;53.216;5.728;2022-07-10T14:38:17;7.20;;;3.03;;
71154;SDS011;59375;53.216;5.728;2022-07-10T14:40:42;7.90;;;3.00;;
71154;SDS011;59375;53.216;5.728;2022-07-10T14:43:08;9.02;;;2.80;;
71154;SDS011;59375;53.216;5.728;2022-07-10T14:45:34;7.57;;;3.40;;
71154;SDS011;59375;53.216;5.728;2022-07-10T14:47:59;7.40;;;2.70;;
71154;SDS011;59375;53.216;5.728;2022-07-10T14:50:25;5.45;;;2.47;;
71154;SDS011;59375;53.216;5.728;2022-07-10T14:52:51;7.97;;;3.00;;
71154;SDS011;59375;53.216;5.728;2022-07-10T14:55:17;8.55;;;3.10;;
71154;SDS011;59375;53.216;5.728;2022-07-10T14:57:43;6.63;;;3.28;;
71154;SDS011;59375;53.216;5.728;2022-07-10T15:00:08;8.45;;;3.08;;
71154;SDS011;59375;53.216;5.728;2022-07-10T15:02:34;8.75;;;3.00;;
71154;SDS011;59375;53.216;5.728;2022-07-10T15:05:00;7.93;;;3.47;;
71154;SDS011;59375;53.216;5.728;2022-07-10T15:07:27;10.60;;;3.38;;
71154;SDS011;59375;53.216;5.728;2022-07-10T15:09:53;7.45;;;3.10;;
71154;SDS011;59375;53.216;5.728;2022-07-10T15:12:18;5.97;;;3.00;;
71154;SDS011;59375;53.216;5.728;2022-07-10T15:14:45;8.13;;;3.30;;
71154;SDS011;59375;53.216;5.728;2022-07-10T15:17:11;7.90;;;3.13;;
71154;SDS011;59375;53.216;5.728;2022-07-10T15:19:37;9.23;;;3.20;;
71154;SDS011;59375;53.216;5.728;2022-07-10T15:22:02;7.03;;;3.03;;
71154;SDS011;59375;53.216;5.728;2022-07-10T15:24:28;7.45;;;3.30;;
71154;SDS011;59375;53.216;5.728;2022-07-10T15:26:53;7.60;;;3.00;;
71154;SDS011;59375;53.216;5.728;2022-07-10T15:29:19;8.32;;;3.50;;